createdAt,value
2016-11-06T00:00:43.060Z,99.99
2016-11-06T00:01:55.564Z,99.99
2016-11-06T00:03:08.694Z,99.99
2016-11-06T00:04:21.775Z,99.99
2016-11-06T00:05:34.350Z,99.99
2016-11-06T00:06:46.936Z,99.99
2016-11-06T00:07:59.505Z,99.99
2016-11-06T00:09:13.157Z,99.99
2016-11-06T00:10:26.261Z,99.99
2016-11-06T00:11:39.309Z,99.99
2016-11-06T00:12:51.902Z,99.99
2016-11-06T00:14:05.035Z,99.99
2016-11-06T00:15:17.074Z,99.99
2016-11-06T00:16:30.659Z,99.99
2016-11-06T00:17:43.221Z,99.99
2016-11-06T00:18:56.282Z,99.99
2016-11-06T00:20:09.324Z,99.99
2016-11-06T00:21:21.861Z,99.99
2016-11-06T00:22:34.894Z,99.99
2016-11-06T00:23:46.891Z,99.99
2016-11-06T00:25:00.546Z,99.99
2016-11-06T00:26:13.129Z,99.99
2016-11-06T00:27:26.292Z,99.99
2016-11-06T00:28:39.337Z,99.99
2016-11-06T00:29:52.492Z,99.99
2016-11-06T00:31:05.562Z,99.99
2016-11-06T00:33:21.372Z,99.99
2016-11-06T00:34:35.046Z,99.99
2016-11-06T00:35:48.136Z,99.99
2016-11-06T00:37:00.691Z,99.99
2016-11-06T00:38:14.409Z,99.99
2016-11-06T00:39:27.487Z,99.99
2016-11-06T00:40:40.799Z,99.99
2016-11-06T00:41:53.840Z,99.99
2016-11-06T00:43:06.372Z,99.99
2016-11-06T00:44:51.082Z,99.99
2016-11-06T00:46:03.703Z,99.99
2016-11-06T00:47:17.322Z,99.99
2016-11-06T00:48:30.938Z,99.99
2016-11-06T00:49:43.519Z,99.99
2016-11-06T00:50:57.195Z,99.99
2016-11-06T00:52:10.751Z,99.99
2016-11-06T00:53:23.964Z,99.99
2016-11-06T00:54:37.564Z,99.99
2016-11-06T00:55:50.652Z,99.99
2016-11-06T00:57:03.838Z,99.99
2016-11-06T00:58:16.359Z,99.99
2016-11-06T00:59:29.984Z,99.99
2016-11-06T01:00:43.728Z,99.99
2016-11-06T01:01:56.783Z,99.99
2016-11-06T01:03:10.365Z,99.99
2016-11-06T01:04:23.937Z,99.99
2016-11-06T01:05:36.974Z,99.99
2016-11-06T01:06:50.588Z,99.99
2016-11-06T01:08:02.509Z,99.99
2016-11-06T01:09:15.670Z,99.99
2016-11-06T01:10:28.779Z,99.99
2016-11-06T01:11:41.860Z,99.99
2016-11-06T01:12:54.954Z,99.99
2016-11-06T01:14:08.639Z,99.99
2016-11-06T01:15:21.761Z,99.99
2016-11-06T01:16:35.332Z,99.99
2016-11-06T01:17:48.916Z,99.99
2016-11-06T01:19:01.447Z,99.99
2016-11-06T01:20:14.515Z,99.99
2016-11-06T01:21:27.125Z,99.99
2016-11-06T01:22:40.257Z,99.99
2016-11-06T01:23:53.296Z,99.99
2016-11-06T01:25:06.921Z,99.99
2016-11-06T01:26:20.519Z,99.99
2016-11-06T01:27:31.901Z,99.99
2016-11-06T01:28:44.997Z,99.99
2016-11-06T01:29:57.562Z,99.99
2016-11-06T01:31:10.669Z,99.99
2016-11-06T01:32:23.231Z,99.99
2016-11-06T01:33:36.232Z,99.99
2016-11-06T01:34:48.762Z,99.99
2016-11-06T01:36:01.858Z,99.99
2016-11-06T01:37:14.387Z,99.99
2016-11-06T01:38:26.930Z,99.99
2016-11-06T01:39:40.530Z,99.99
2016-11-06T01:40:54.067Z,99.99
2016-11-06T01:42:06.128Z,99.99
2016-11-06T01:43:19.761Z,99.99
2016-11-06T01:44:33.371Z,99.99
2016-11-06T01:45:46.440Z,99.99
2016-11-06T01:46:59.505Z,99.99
2016-11-06T01:48:13.111Z,99.99
2016-11-06T01:49:26.203Z,99.99
2016-11-06T01:50:39.319Z,99.99
2016-11-06T01:51:51.344Z,99.99
2016-11-06T01:53:05.023Z,99.99
2016-11-06T01:54:18.104Z,99.99
2016-11-06T01:55:31.778Z,99.99
2016-11-06T01:56:44.891Z,99.99
2016-11-06T01:57:57.937Z,99.99
2016-11-06T01:59:11.531Z,99.99
2016-11-06T02:00:24.571Z,99.99
2016-11-06T02:01:37.693Z,99.99
2016-11-06T02:02:51.327Z,99.99
2016-11-06T02:04:04.449Z,99.99
2016-11-06T02:05:17.616Z,99.99
2016-11-06T02:06:30.243Z,99.99
2016-11-06T02:07:42.800Z,99.99
2016-11-06T02:08:56.330Z,99.99
2016-11-06T02:10:09.917Z,99.99
2016-11-06T02:11:23.550Z,99.99
2016-11-06T02:12:37.074Z,99.99
2016-11-06T02:13:50.175Z,99.99
2016-11-06T02:15:03.269Z,99.99
2016-11-06T02:16:16.411Z,99.99
2016-11-06T02:17:28.428Z,99.99
2016-11-06T02:18:42.077Z,99.99
2016-11-06T02:19:55.131Z,99.99
2016-11-06T02:21:08.225Z,99.99
2016-11-06T02:22:21.311Z,99.99
2016-11-06T02:23:34.898Z,99.99
2016-11-06T02:24:46.348Z,99.99
2016-11-06T02:25:59.398Z,99.99
2016-11-06T02:27:13.052Z,99.99
2016-11-06T02:28:26.764Z,99.99
2016-11-06T02:29:40.343Z,99.99
2016-11-06T02:30:54.013Z,99.99
2016-11-06T02:32:07.080Z,99.99
2016-11-06T02:33:20.175Z,99.99
2016-11-06T02:34:32.159Z,99.99
2016-11-06T02:35:45.290Z,99.99
2016-11-06T02:36:58.840Z,99.99
2016-11-06T02:38:11.930Z,99.99
2016-11-06T02:39:25.606Z,99.99
2016-11-06T02:40:38.648Z,99.99
2016-11-06T02:41:51.803Z,99.99
2016-11-06T02:43:05.344Z,99.99
2016-11-06T02:44:17.907Z,99.99
2016-11-06T02:45:30.378Z,99.99
2016-11-06T02:46:42.901Z,99.99
2016-11-06T02:47:55.961Z,99.99
2016-11-06T02:49:09.604Z,99.99
2016-11-06T02:50:22.687Z,99.99
2016-11-06T02:51:35.211Z,99.99
2016-11-06T02:52:47.768Z,99.99
2016-11-06T02:54:01.382Z,99.99
2016-11-06T02:55:14.474Z,99.99
2016-11-06T02:56:26.984Z,99.99
2016-11-06T02:57:40.490Z,99.99
2016-11-06T02:58:53.064Z,99.99
2016-11-06T03:00:05.562Z,99.99
2016-11-06T03:01:18.641Z,99.99
2016-11-06T03:02:31.219Z,99.99
2016-11-06T03:03:44.885Z,99.99
2016-11-06T03:04:58.541Z,99.99
2016-11-06T03:06:12.146Z,99.99
2016-11-06T03:07:24.189Z,99.99
2016-11-06T03:08:37.281Z,99.99
2016-11-06T03:09:50.363Z,99.99
2016-11-06T03:11:02.888Z,99.99
2016-11-06T03:12:15.526Z,99.99
2016-11-06T03:13:28.040Z,99.99
2016-11-06T03:14:40.575Z,99.99
2016-11-06T03:15:54.188Z,99.99
2016-11-06T03:17:07.876Z,99.99
2016-11-06T03:18:20.945Z,99.99
2016-11-06T03:19:33.552Z,99.99
2016-11-06T03:20:46.168Z,99.99
2016-11-06T03:21:58.246Z,99.99
2016-11-06T03:23:10.843Z,99.99
2016-11-06T03:24:24.359Z,99.99
2016-11-06T03:25:36.956Z,99.99
2016-11-06T03:26:50.561Z,99.99
2016-11-06T03:28:03.053Z,99.99
2016-11-06T03:29:16.713Z,99.99
2016-11-06T03:30:28.733Z,99.99
2016-11-06T03:31:42.286Z,99.99
2016-11-06T03:32:55.406Z,99.99
2016-11-06T03:34:08.479Z,99.99
2016-11-06T03:35:21.634Z,99.99
2016-11-06T03:36:34.740Z,99.99
2016-11-06T03:37:47.775Z,99.99
2016-11-06T03:39:01.490Z,99.99
2016-11-06T03:40:14.005Z,99.99
2016-11-06T03:41:27.061Z,99.99
2016-11-06T03:42:39.646Z,99.99
2016-11-06T03:43:52.239Z,99.99
2016-11-06T03:45:04.817Z,99.99
2016-11-06T03:46:17.881Z,99.99
2016-11-06T03:47:29.911Z,99.99
2016-11-06T03:48:43.025Z,99.99
2016-11-06T03:49:55.549Z,99.99
2016-11-06T03:51:08.573Z,99.99
2016-11-06T03:52:22.247Z,99.99
2016-11-06T03:53:34.771Z,99.99
2016-11-06T03:54:47.983Z,99.99
2016-11-06T03:56:00.979Z,99.99
2016-11-06T03:57:13.027Z,99.99
2016-11-06T03:58:26.754Z,99.99
2016-11-06T03:59:39.323Z,99.99
2016-11-06T04:00:52.475Z,99.99
2016-11-06T04:02:05.582Z,99.99
2016-11-06T04:03:18.189Z,99.99
2016-11-06T04:04:31.814Z,99.99
2016-11-06T04:05:44.360Z,99.99
2016-11-06T04:06:56.444Z,99.99
2016-11-06T04:08:10.014Z,99.99
2016-11-06T04:09:22.631Z,99.99
2016-11-06T04:10:35.746Z,99.99
2016-11-06T04:11:49.334Z,99.99
2016-11-06T04:13:02.872Z,99.99
2016-11-06T04:14:15.408Z,99.99
2016-11-06T04:15:27.949Z,99.99
2016-11-06T04:16:40.416Z,99.99
2016-11-06T04:17:54.033Z,99.99
2016-11-06T04:19:07.147Z,99.99
2016-11-06T04:20:20.260Z,99.99
2016-11-06T04:21:32.865Z,99.99
2016-11-06T04:24:29.577Z,99.99
2016-11-06T04:25:42.649Z,99.99
2016-11-06T04:26:55.139Z,99.99
2016-11-06T04:28:07.171Z,99.99
2016-11-06T04:29:19.688Z,99.99
2016-11-06T04:30:33.266Z,99.99
2016-11-06T04:31:46.834Z,99.99
2016-11-06T04:32:59.979Z,99.99
2016-11-06T04:34:12.555Z,99.99
2016-11-06T04:35:25.590Z,99.99
2016-11-06T04:36:38.151Z,99.99
2016-11-06T04:37:51.727Z,99.99
2016-11-06T04:39:05.372Z,99.99
2016-11-06T04:40:17.954Z,99.99
2016-11-06T04:41:30.957Z,99.99
2016-11-06T04:42:44.555Z,99.99
2016-11-06T04:43:57.119Z,99.99
2016-11-06T04:45:10.202Z,99.99
2016-11-06T04:46:22.822Z,99.99
2016-11-06T04:47:34.837Z,99.99
2016-11-06T04:48:47.918Z,99.99
2016-11-06T04:50:01.059Z,99.99
2016-11-06T04:51:12.554Z,99.99
2016-11-06T04:52:25.655Z,99.99
2016-11-06T04:53:38.172Z,99.99
2016-11-06T04:54:51.236Z,99.99
2016-11-06T04:56:04.314Z,99.99
2016-11-06T04:57:16.797Z,99.99
2016-11-06T04:58:30.416Z,99.99
2016-11-06T04:59:44.124Z,99.99
2016-11-06T05:00:56.153Z,99.99
2016-11-06T05:02:09.157Z,99.99
2016-11-06T05:03:21.185Z,99.99
2016-11-06T05:04:34.316Z,99.99
2016-11-06T05:05:47.358Z,99.99
2016-11-06T05:06:59.295Z,99.99
2016-11-06T05:08:12.887Z,99.99
2016-11-06T05:09:25.387Z,99.99
2016-11-06T05:10:37.912Z,99.99
2016-11-06T05:11:50.521Z,99.99
2016-11-06T05:13:03.655Z,99.99
2016-11-06T05:14:16.725Z,99.99
2016-11-06T05:15:29.780Z,99.99
2016-11-06T05:16:42.248Z,99.99
2016-11-06T05:17:54.792Z,99.99
2016-11-06T05:19:07.869Z,99.99
2016-11-06T05:20:21.507Z,99.99
2016-11-06T05:21:34.017Z,99.99
2016-11-06T05:22:46.570Z,99.99
2016-11-06T05:23:58.552Z,99.99
2016-11-06T05:25:11.634Z,99.99
2016-11-06T05:26:24.755Z,99.99
2016-11-06T05:27:36.769Z,99.99
2016-11-06T05:28:49.310Z,99.99
2016-11-06T05:30:01.884Z,99.99
2016-11-06T05:31:13.877Z,99.99
2016-11-06T05:32:26.434Z,99.99
2016-11-06T05:33:39.542Z,99.99
2016-11-06T05:34:51.995Z,99.99
2016-11-06T05:36:05.072Z,99.99
2016-11-06T05:37:17.620Z,99.99
2016-11-06T05:38:30.127Z,99.99
2016-11-06T05:39:42.124Z,99.99
2016-11-06T05:40:55.191Z,99.99
2016-11-06T05:42:07.726Z,99.99
2016-11-06T05:43:19.686Z,99.99
2016-11-06T05:44:32.271Z,99.99
2016-11-06T05:45:45.877Z,99.99
2016-11-06T05:46:59.489Z,99.99
2016-11-06T05:48:12.038Z,99.99
2016-11-06T05:49:25.095Z,99.99
2016-11-06T05:50:37.583Z,99.99
2016-11-06T05:51:50.682Z,99.99
2016-11-06T05:53:03.222Z,99.99
2016-11-06T05:54:16.266Z,99.99
2016-11-06T05:55:28.753Z,99.99
2016-11-06T05:56:41.288Z,99.99
2016-11-06T05:57:54.504Z,99.99
2016-11-06T05:59:07.581Z,99.99
2016-11-06T06:00:20.099Z,99.99
2016-11-06T06:01:33.722Z,99.99
2016-11-06T06:02:46.903Z,99.99
2016-11-06T06:04:00.005Z,99.99
2016-11-06T06:05:12.016Z,99.99
2016-11-06T06:06:25.544Z,99.99
2016-11-06T06:07:39.069Z,99.99
2016-11-06T06:08:52.743Z,99.99
2016-11-06T06:10:05.793Z,99.99
2016-11-06T06:11:18.854Z,99.99
2016-11-06T06:12:31.894Z,99.99
2016-11-06T06:13:45.448Z,99.99
2016-11-06T06:14:57.983Z,99.99
2016-11-06T06:16:10.518Z,99.99
2016-11-06T06:17:23.548Z,99.99
2016-11-06T06:18:35.627Z,99.99
2016-11-06T06:19:48.673Z,99.99
2016-11-06T06:21:01.245Z,99.99
2016-11-06T06:22:14.340Z,99.99
2016-11-06T06:23:27.460Z,99.99
2016-11-06T06:24:40.504Z,99.99
2016-11-06T06:25:53.620Z,99.99
2016-11-06T06:27:06.650Z,99.99
2016-11-06T06:28:20.278Z,99.99
2016-11-06T06:29:32.787Z,99.99
2016-11-06T06:30:46.462Z,99.99
2016-11-06T06:31:59.553Z,99.99
2016-11-06T06:33:12.625Z,99.99
2016-11-06T06:34:24.600Z,99.99
2016-11-06T06:35:37.621Z,99.99
2016-11-06T06:36:50.655Z,99.99
2016-11-06T06:38:03.241Z,99.99
2016-11-06T06:39:16.268Z,99.99
2016-11-06T06:40:29.393Z,99.99
2016-11-06T06:41:42.963Z,99.99
2016-11-06T06:42:56.598Z,99.99
2016-11-06T06:44:09.149Z,99.99
2016-11-06T06:45:21.215Z,99.99
2016-11-06T06:46:34.304Z,99.99
2016-11-06T06:47:46.868Z,99.99
2016-11-06T06:48:59.975Z,99.99
2016-11-06T06:50:12.011Z,99.99
2016-11-06T06:51:24.541Z,99.99
2016-11-06T06:52:37.540Z,99.99
2016-11-06T06:53:50.586Z,99.99
2016-11-06T06:55:03.182Z,99.99
2016-11-06T06:56:16.732Z,99.99
2016-11-06T06:57:29.847Z,99.99
2016-11-06T06:58:42.963Z,99.99
2016-11-06T06:59:56.495Z,99.99
2016-11-06T07:01:09.576Z,99.99
2016-11-06T07:02:22.669Z,99.99
2016-11-06T07:03:35.749Z,99.99
2016-11-06T07:04:48.839Z,99.99
2016-11-06T07:06:01.969Z,99.99
2016-11-06T07:07:15.591Z,99.99
2016-11-06T07:08:29.191Z,99.99
2016-11-06T07:09:41.814Z,99.99
2016-11-06T07:10:55.485Z,99.99
2016-11-06T07:12:09.146Z,99.99
2016-11-06T07:13:22.756Z,99.99
2016-11-06T07:14:35.878Z,99.99
2016-11-06T07:15:48.435Z,99.99
2016-11-06T07:17:02.021Z,99.99
2016-11-06T07:18:14.520Z,99.99
2016-11-06T07:19:28.106Z,99.99
2016-11-06T07:20:41.800Z,99.99
2016-11-06T07:21:55.386Z,99.99
2016-11-06T07:23:09.026Z,99.99
2016-11-06T07:24:22.068Z,99.99
2016-11-06T07:25:35.719Z,99.99
2016-11-06T07:26:48.243Z,99.99
2016-11-06T07:28:01.834Z,99.99
2016-11-06T07:29:14.928Z,99.99
2016-11-06T07:30:28.560Z,99.99
2016-11-06T07:31:41.169Z,99.99
2016-11-06T07:32:54.224Z,99.99
2016-11-06T07:34:07.287Z,99.99
2016-11-06T07:35:20.895Z,99.99
2016-11-06T07:36:33.463Z,99.99
2016-11-06T07:37:46.540Z,99.99
2016-11-06T07:39:00.167Z,99.99
2016-11-06T07:40:13.872Z,99.99
2016-11-06T07:41:27.027Z,99.99
2016-11-06T07:42:40.136Z,99.99
2016-11-06T07:43:53.260Z,99.99
2016-11-06T07:45:06.319Z,99.99
2016-11-06T07:46:19.381Z,99.99
2016-11-06T07:47:31.450Z,99.99
2016-11-06T07:48:44.990Z,99.99
2016-11-06T07:49:58.029Z,99.99
2016-11-06T07:51:11.151Z,99.99
2016-11-06T07:52:23.142Z,99.99
2016-11-06T07:53:36.177Z,99.99
2016-11-06T07:54:49.224Z,99.99
2016-11-06T07:56:01.717Z,99.99
2016-11-06T07:57:14.821Z,99.99
2016-11-06T07:58:28.440Z,99.99
2016-11-06T07:59:42.065Z,99.99
2016-11-06T08:00:55.674Z,99.99
2016-11-06T08:02:08.756Z,99.99
2016-11-06T08:03:21.810Z,99.99
2016-11-06T08:04:34.875Z,99.99
2016-11-06T08:05:47.967Z,99.99
2016-11-06T08:06:59.996Z,99.99
2016-11-06T08:08:13.593Z,99.99
2016-11-06T08:09:27.196Z,99.99
2016-11-06T08:10:40.742Z,99.99
2016-11-06T08:11:53.855Z,99.99
2016-11-06T08:13:06.897Z,99.99
2016-11-06T08:14:20.476Z,99.99
2016-11-06T08:15:33.003Z,99.99
2016-11-06T08:16:45.028Z,99.99
2016-11-06T08:17:57.009Z,99.99
2016-11-06T08:19:10.504Z,99.99
2016-11-06T08:20:24.132Z,99.99
2016-11-06T08:21:36.144Z,99.99
2016-11-06T08:22:49.708Z,99.99
2016-11-06T08:24:03.358Z,99.99
2016-11-06T08:25:17.019Z,99.99
2016-11-06T08:26:30.071Z,99.99
2016-11-06T08:27:42.689Z,99.99
2016-11-06T08:28:55.212Z,99.99
2016-11-06T08:30:08.956Z,99.99
2016-11-06T08:31:20.925Z,99.99
2016-11-06T08:32:33.987Z,99.99
2016-11-06T08:33:47.558Z,99.99
2016-11-06T08:35:00.592Z,99.99
2016-11-06T08:36:13.695Z,99.99
2016-11-06T08:37:27.371Z,99.99
2016-11-06T08:38:40.948Z,99.99
2016-11-06T08:39:54.540Z,99.99
2016-11-06T08:41:07.539Z,99.99
2016-11-06T08:42:20.023Z,99.99
2016-11-06T08:43:33.609Z,99.99
2016-11-06T08:44:45.109Z,99.99
2016-11-06T08:45:58.226Z,99.99
2016-11-06T08:47:10.211Z,99.99
2016-11-06T08:48:22.256Z,99.99
2016-11-06T08:49:35.922Z,99.99
2016-11-06T08:50:47.897Z,99.99
2016-11-06T08:52:01.531Z,99.99
2016-11-06T08:53:14.141Z,99.99
2016-11-06T08:54:26.759Z,99.99
2016-11-06T08:55:39.877Z,99.99
2016-11-06T08:56:52.452Z,99.99
2016-11-06T08:58:05.491Z,99.99
2016-11-06T08:59:18.591Z,99.99
2016-11-06T09:00:30.565Z,99.99
2016-11-06T09:01:43.140Z,99.99
2016-11-06T09:02:56.713Z,99.99
2016-11-06T09:04:09.244Z,99.99
2016-11-06T09:05:21.767Z,99.99
2016-11-06T09:06:34.872Z,99.99
2016-11-06T09:07:47.392Z,99.99
2016-11-06T09:08:59.995Z,99.99
2016-11-06T09:10:11.957Z,99.99
2016-11-06T09:11:24.535Z,99.99
2016-11-06T09:12:37.064Z,99.99
2016-11-06T09:13:50.076Z,99.99
2016-11-06T09:15:03.124Z,99.99
2016-11-06T09:16:16.223Z,99.99
2016-11-06T09:17:29.374Z,99.99
2016-11-06T09:18:42.471Z,99.99
2016-11-06T09:19:53.936Z,99.99
2016-11-06T09:21:06.492Z,99.99
2016-11-06T09:22:50.616Z,99.99
2016-11-06T09:24:03.181Z,99.99
2016-11-06T09:25:16.276Z,99.99
2016-11-06T09:26:29.293Z,99.99
2016-11-06T09:27:41.837Z,99.99
2016-11-06T09:28:53.867Z,99.99
2016-11-06T09:30:06.946Z,99.99
2016-11-06T09:31:19.038Z,99.99
2016-11-06T09:32:32.143Z,99.99
2016-11-06T09:33:44.700Z,99.99
2016-11-06T09:34:57.263Z,99.99
2016-11-06T09:36:10.882Z,99.99
2016-11-06T09:37:24.477Z,99.99
2016-11-06T09:38:37.642Z,99.99
2016-11-06T09:39:50.698Z,99.99
2016-11-06T09:41:04.319Z,99.99
2016-11-06T09:42:17.933Z,99.99
2016-11-06T09:43:29.936Z,99.99
2016-11-06T09:44:42.459Z,99.99
2016-11-06T09:46:26.714Z,99.99
2016-11-06T09:47:39.782Z,99.99
2016-11-06T09:48:52.871Z,99.99
2016-11-06T09:50:06.506Z,99.99
2016-11-06T09:51:20.147Z,99.99
2016-11-06T09:52:33.230Z,99.99
2016-11-06T09:53:45.790Z,99.99
2016-11-06T09:54:59.423Z,99.99
2016-11-06T09:56:11.975Z,99.99
2016-11-06T09:57:25.566Z,99.99
2016-11-06T09:58:38.115Z,99.99
2016-11-06T09:59:50.597Z,99.99
2016-11-06T10:01:03.654Z,99.99
2016-11-06T10:02:17.297Z,99.99
2016-11-06T10:03:30.940Z,99.99
2016-11-06T10:04:44.069Z,99.99
2016-11-06T10:05:56.055Z,99.99
2016-11-06T10:07:09.609Z,99.99
2016-11-06T10:08:23.268Z,99.99
2016-11-06T10:09:36.331Z,99.99
2016-11-06T10:10:49.854Z,99.99
2016-11-06T10:12:03.451Z,99.99
2016-11-06T10:13:16.552Z,99.99
2016-11-06T10:14:30.063Z,99.99
2016-11-06T10:15:43.149Z,99.99
2016-11-06T10:16:56.723Z,99.99
2016-11-06T10:18:09.808Z,99.99
2016-11-06T10:19:23.469Z,99.99
2016-11-06T10:20:37.042Z,99.99
2016-11-06T10:21:49.636Z,99.99
2016-11-06T10:23:02.137Z,99.99
2016-11-06T10:24:15.704Z,99.99
2016-11-06T10:25:28.249Z,99.99
2016-11-06T10:26:41.822Z,99.99
2016-11-06T10:27:54.895Z,99.99
2016-11-06T10:29:07.909Z,99.99
2016-11-06T10:30:21.527Z,99.99
2016-11-06T10:31:34.579Z,99.99
2016-11-06T10:32:47.647Z,99.99
2016-11-06T10:34:00.708Z,99.99
2016-11-06T10:35:14.323Z,99.99
2016-11-06T10:36:26.866Z,99.99
2016-11-06T10:37:39.934Z,99.99
2016-11-06T10:38:52.547Z,99.99
2016-11-06T10:40:05.526Z,99.99
2016-11-06T10:41:19.120Z,99.99
2016-11-06T10:42:32.200Z,99.99
2016-11-06T10:43:45.209Z,99.99
2016-11-06T10:44:58.814Z,99.99
2016-11-06T10:46:11.888Z,99.99
2016-11-06T10:47:24.424Z,99.99
2016-11-06T10:48:37.971Z,99.99
2016-11-06T10:49:51.608Z,99.99
2016-11-06T10:51:04.682Z,99.99
2016-11-06T10:52:18.286Z,99.99
2016-11-06T10:53:31.821Z,99.99
2016-11-06T10:54:44.927Z,99.99
2016-11-06T10:55:58.011Z,99.99
2016-11-06T10:57:11.063Z,99.99
2016-11-06T10:58:24.185Z,99.99
2016-11-06T10:59:37.258Z,99.99
2016-11-06T11:00:49.791Z,99.99
2016-11-06T11:02:02.337Z,99.99
2016-11-06T11:03:16.022Z,99.99
2016-11-06T11:04:29.621Z,99.99
2016-11-06T11:05:42.196Z,99.99
2016-11-06T11:06:54.748Z,99.99
2016-11-06T11:08:08.360Z,99.99
2016-11-06T11:09:22.012Z,99.99
2016-11-06T11:10:35.633Z,99.99
2016-11-06T11:11:48.198Z,99.99
2016-11-06T11:13:01.199Z,99.99
2016-11-06T11:14:14.283Z,99.99
2016-11-06T11:15:27.921Z,99.99
2016-11-06T11:16:41.583Z,99.99
2016-11-06T11:17:54.699Z,99.99
2016-11-06T11:19:07.921Z,99.99
2016-11-06T11:20:21.021Z,99.99
2016-11-06T11:21:34.610Z,99.99
2016-11-06T11:22:47.131Z,99.99
2016-11-06T11:24:00.880Z,99.99
2016-11-06T11:25:14.479Z,99.99
2016-11-06T11:26:28.111Z,99.99
2016-11-06T11:27:40.198Z,99.99
2016-11-06T11:28:53.816Z,99.99
2016-11-06T11:30:06.909Z,99.99
2016-11-06T11:31:18.936Z,99.99
2016-11-06T11:32:32.488Z,99.99
2016-11-06T11:34:16.684Z,99.99
2016-11-06T11:35:30.315Z,99.99
2016-11-06T11:36:42.832Z,99.99
2016-11-06T11:37:56.489Z,99.99
2016-11-06T11:39:09.005Z,99.99
2016-11-06T11:40:22.098Z,99.99
2016-11-06T11:41:35.664Z,99.99
2016-11-06T11:42:48.744Z,99.99
2016-11-06T11:44:01.791Z,98.97
2016-11-06T11:45:14.811Z,99.16
2016-11-06T11:46:27.927Z,98.97
2016-11-06T11:47:41.038Z,99.26
2016-11-06T11:48:54.622Z,99.45
2016-11-06T11:50:07.708Z,99.55
2016-11-06T11:51:20.806Z,99.74
2016-11-06T11:52:33.878Z,99.99
2016-11-06T11:53:46.876Z,99.99
2016-11-06T11:54:59.901Z,99.99
2016-11-06T11:56:12.459Z,99.99
2016-11-06T11:57:25.065Z,99.99
2016-11-06T11:58:38.671Z,99.99
2016-11-06T11:59:51.765Z,99.99
2016-11-06T12:01:05.487Z,99.99
2016-11-06T12:02:19.038Z,99.99
2016-11-06T12:03:32.098Z,99.99
2016-11-06T12:04:45.732Z,99.99
2016-11-06T12:05:58.824Z,99.99
2016-11-06T12:07:12.486Z,99.99
2016-11-06T12:08:26.140Z,99.99
2016-11-06T12:09:39.173Z,99.99
2016-11-06T12:10:51.790Z,99.99
2016-11-06T12:12:04.348Z,99.99
2016-11-06T12:13:18.015Z,99.99
2016-11-06T12:14:31.088Z,99.99
2016-11-06T12:15:44.726Z,99.99
2016-11-06T12:16:57.823Z,99.99
2016-11-06T12:18:11.404Z,99.99
2016-11-06T12:19:24.005Z,99.99
2016-11-06T12:20:36.593Z,99.99
2016-11-06T12:21:49.678Z,99.99
2016-11-06T12:23:03.290Z,99.99
2016-11-06T12:24:16.383Z,99.99
2016-11-06T12:25:29.961Z,99.99
2016-11-06T12:26:43.073Z,99.99
2016-11-06T12:27:55.112Z,99.99
2016-11-06T12:29:08.793Z,99.99
2016-11-06T12:30:21.315Z,99.99
2016-11-06T12:31:34.409Z,99.11
2016-11-06T12:32:47.514Z,99.35
2016-11-06T12:34:01.101Z,99.55
2016-11-06T12:35:14.215Z,99.99
2016-11-06T12:36:27.291Z,99.5
2016-11-06T12:37:40.349Z,98.77
2016-11-06T12:38:53.425Z,98.29
2016-11-06T12:40:06.065Z,98.29
2016-11-06T12:41:19.166Z,97.62
2016-11-06T12:42:31.178Z,97.38
2016-11-06T12:43:44.836Z,97.19
2016-11-06T12:44:57.870Z,96.51
2016-11-06T12:46:11.511Z,96.51
2016-11-06T12:47:24.563Z,96.12
2016-11-06T12:48:38.172Z,96.41
2016-11-06T12:49:51.278Z,96.51
2016-11-06T12:51:04.314Z,95.01
2016-11-06T12:52:17.320Z,95.31
2016-11-06T12:53:29.824Z,94.29
2016-11-06T12:54:41.925Z,92.74
2016-11-06T12:55:54.472Z,93.08
2016-11-06T12:57:06.490Z,93.32
2016-11-06T12:58:17.998Z,92.74
2016-11-06T12:59:30.027Z,92.41
2016-11-06T13:00:43.685Z,92.11
2016-11-06T13:01:56.242Z,92.69
2016-11-06T13:03:08.819Z,92.84
2016-11-06T13:04:21.810Z,93.23
2016-11-06T13:05:35.387Z,93.71
2016-11-06T13:06:46.891Z,93.13
2016-11-06T13:07:59.912Z,92.46
2016-11-06T13:09:13.532Z,91.83
2016-11-06T13:10:26.630Z,90.13
2016-11-06T13:11:39.245Z,91
2016-11-06T13:12:52.330Z,92.31
2016-11-06T13:14:05.366Z,92.65
2016-11-06T13:15:18.933Z,93.47
2016-11-06T13:16:31.465Z,92.99
2016-11-06T13:17:44.055Z,92.89
2016-11-06T13:18:57.192Z,91.97
2016-11-06T13:20:10.823Z,91.78
2016-11-06T13:21:23.913Z,92.02
2016-11-06T13:22:36.484Z,91.3
2016-11-06T13:23:50.065Z,91.39
2016-11-06T13:25:02.077Z,91.97
2016-11-06T13:26:14.151Z,91.68
2016-11-06T13:27:27.253Z,91.25
2016-11-06T13:28:40.336Z,92.94
2016-11-06T13:29:52.908Z,93.04
2016-11-06T13:31:05.970Z,93.23
2016-11-06T13:32:19.627Z,92.07
2016-11-06T13:33:32.758Z,90.62
2016-11-06T13:34:45.253Z,90.28
2016-11-06T13:35:58.324Z,89.84
2016-11-06T13:37:11.482Z,88.59
2016-11-06T13:38:24.022Z,88.68
2016-11-06T13:39:37.140Z,89.55
2016-11-06T13:40:50.289Z,89.07
2016-11-06T13:42:03.918Z,88.24
2016-11-06T13:43:16.488Z,85.29
2016-11-06T13:44:29.035Z,86.55
2016-11-06T13:45:42.201Z,85.48
2016-11-06T13:46:55.248Z,85.62
2016-11-06T13:48:07.858Z,87.13
2016-11-06T13:49:20.981Z,87.66
2016-11-06T13:50:33.575Z,86.21
2016-11-06T13:51:46.631Z,85.19
2016-11-06T13:52:59.719Z,85.33
2016-11-06T13:54:13.397Z,85
2016-11-06T13:55:25.857Z,85.48
2016-11-06T13:56:38.866Z,85.87
2016-11-06T13:57:51.440Z,86.35
2016-11-06T13:59:03.970Z,86.65
2016-11-06T14:00:17.013Z,86.55
2016-11-06T14:01:28.970Z,86.41
2016-11-06T14:03:12.109Z,87.57
2016-11-06T14:04:25.753Z,87.52
2016-11-06T14:05:38.313Z,87.23
2016-11-06T14:06:51.510Z,87.23
2016-11-06T14:08:03.546Z,87.52
2016-11-06T14:09:16.075Z,87.33
2016-11-06T14:10:29.195Z,87.33
2016-11-06T14:11:42.903Z,86.46
2016-11-06T14:12:55.978Z,85.93
2016-11-06T14:14:08.522Z,85.53
2016-11-06T14:15:21.542Z,84.32
2016-11-06T14:16:33.554Z,84.52
2016-11-06T14:17:46.187Z,84.32
2016-11-06T14:18:59.780Z,83.94
2016-11-06T14:20:11.890Z,84.36
2016-11-06T14:21:24.972Z,83.98
2016-11-06T14:22:37.546Z,82.91
2016-11-06T14:23:50.624Z,82.28
2016-11-06T14:25:03.736Z,81.6
2016-11-06T14:26:48.462Z,81.3
2016-11-06T14:28:00.463Z,82.03
2016-11-06T14:29:13.638Z,80.47
2016-11-06T14:30:26.151Z,80.77
2016-11-06T14:31:38.204Z,80.77
2016-11-06T14:32:50.737Z,80.19
2016-11-06T14:34:03.869Z,79.02
2016-11-06T14:37:00.115Z,80.38
2016-11-06T14:38:13.666Z,80.47
2016-11-06T14:39:26.748Z,80.77
2016-11-06T14:40:39.312Z,80.67
2016-11-06T14:41:51.842Z,80.57
2016-11-06T14:43:04.980Z,80.73
2016-11-06T14:44:18.051Z,80.34
2016-11-06T14:45:31.172Z,80.15
2016-11-06T14:46:44.251Z,80.15
2016-11-06T14:47:56.282Z,80.34
2016-11-06T14:49:08.309Z,80.92
2016-11-06T14:50:21.498Z,80.4
2016-11-06T14:51:33.517Z,80.2
2016-11-06T14:52:46.567Z,81.07
2016-11-06T14:53:58.563Z,80.88
2016-11-06T14:55:11.063Z,80.79
2016-11-06T14:56:24.180Z,80.59
2016-11-06T14:57:36.745Z,80.4
2016-11-06T14:58:48.780Z,80.92
2016-11-06T15:00:02.401Z,81.17
2016-11-06T15:01:15.486Z,80.92
2016-11-06T15:02:28.540Z,80.34
2016-11-06T15:03:41.103Z,80.44
2016-11-06T15:04:54.074Z,80.63
2016-11-06T15:06:07.753Z,80.44
2016-11-06T15:07:19.744Z,79.47
2016-11-06T15:08:32.849Z,79.85
2016-11-06T15:09:45.375Z,80.63
2016-11-06T15:10:57.913Z,79.76
2016-11-06T15:12:10.986Z,79.02
2016-11-06T15:13:24.535Z,78.02
2016-11-06T15:14:38.144Z,79.17
2016-11-06T15:15:50.714Z,79.27
2016-11-06T15:17:04.330Z,79.27
2016-11-06T15:18:16.823Z,78.41
2016-11-06T15:19:29.905Z,78.34
2016-11-06T15:20:42.981Z,78.64
2016-11-06T15:21:55.586Z,78.74
2016-11-06T15:23:08.717Z,78.15
2016-11-06T15:24:21.800Z,78.15
2016-11-06T15:25:35.423Z,78.54
2016-11-06T15:26:47.473Z,77.96
2016-11-06T15:28:00.665Z,77.57
2016-11-06T15:29:14.272Z,77.47
2016-11-06T15:30:27.885Z,77.28
2016-11-06T15:31:40.926Z,77.47
2016-11-06T15:32:52.870Z,76.41
2016-11-06T15:34:05.503Z,76.89
2016-11-06T15:35:18.105Z,77.86
2016-11-06T15:36:30.613Z,77.57
2016-11-06T15:37:43.609Z,77.47
2016-11-06T15:38:56.814Z,78
2016-11-06T15:40:09.941Z,76.93
2016-11-06T15:41:21.933Z,76.15
2016-11-06T15:42:35.499Z,76.06
2016-11-06T15:43:48.564Z,75.67
2016-11-06T15:45:00.550Z,75.71
2016-11-06T15:46:13.103Z,74.93
2016-11-06T15:47:26.763Z,74.54
2016-11-06T15:48:39.371Z,74